createdAt,value
2022-12-23T00:00:20.075Z,67.39
2022-12-23T00:02:48.608Z,66.71
2022-12-23T00:05:18.650Z,67.01
2022-12-23T00:07:46.875Z,66.93
2022-12-23T00:10:15.037Z,67.01
2022-12-23T00:13:00.705Z,67.04
2022-12-23T00:15:29.254Z,66.95
2022-12-23T00:17:57.541Z,66.43
2022-12-23T00:20:27.099Z,67.19
2022-12-23T00:23:07.395Z,67.44
2022-12-23T00:25:44.976Z,66.83
2022-12-23T00:28:15.505Z,67.49
2022-12-23T00:30:48.194Z,67.70
2022-12-23T00:33:17.789Z,67.17
2022-12-23T00:35:48.092Z,67.64
2022-12-23T00:38:17.375Z,67.39
2022-12-23T00:41:03.182Z,67.74
2022-12-23T00:43:31.312Z,67.44
2022-12-23T00:45:59.656Z,67.91
2022-12-23T00:48:45.143Z,67.05
2022-12-23T00:51:14.697Z,67.03
2022-12-23T00:53:42.762Z,67.72
2022-12-23T00:56:10.917Z,67.54
2022-12-23T00:58:39.045Z,67.09
2022-12-23T01:01:24.750Z,67.19
2022-12-23T01:04:10.614Z,67.58
2022-12-23T01:06:40.155Z,67.35
2022-12-23T01:09:08.460Z,68.22
2022-12-23T01:11:37.014Z,68.39
2022-12-23T01:14:05.326Z,68.24
2022-12-23T01:16:33.697Z,68.37
2022-12-23T01:19:01.935Z,68.09
2022-12-23T01:21:30.303Z,68.23
2022-12-23T01:24:00.112Z,68.09
2022-12-23T01:26:28.586Z,67.72
2022-12-23T01:28:57.408Z,68.33
2022-12-23T01:31:26.627Z,67.40
2022-12-23T01:33:55.501Z,67.84
2022-12-23T01:36:24.048Z,67.16
2022-12-23T01:38:52.661Z,67.46
2022-12-23T01:41:39.020Z,67.25
2022-12-23T01:44:40.311Z,67.70
2022-12-23T01:47:14.307Z,66.74
2022-12-23T01:49:43.118Z,67.65
2022-12-23T01:52:13.138Z,67.54
2022-12-23T01:54:42.460Z,67.81
2022-12-23T01:57:12.712Z,68.54
2022-12-23T01:59:59.300Z,68.27
2022-12-23T02:02:48.331Z,68.04
2022-12-23T02:05:18.013Z,68.54
2022-12-23T02:08:03.979Z,68.62
2022-12-23T02:10:40.059Z,68.63
2022-12-23T02:13:17.252Z,68.52
2022-12-23T02:16:09.767Z,68.39
2022-12-23T02:18:53.829Z,68.75
2022-12-23T02:21:49.600Z,68.49
2022-12-23T02:24:54.413Z,68.75
2022-12-23T02:27:30.203Z,68.55
2022-12-23T02:30:41.300Z,68.10
2022-12-23T02:33:34.216Z,68.36
2022-12-23T02:36:15.382Z,68.59
2022-12-23T02:38:49.331Z,68.47
2022-12-23T02:41:24.838Z,68.46
2022-12-23T02:43:59.317Z,68.30
2022-12-23T02:46:34.018Z,68.59
2022-12-23T02:49:09.530Z,68.66
2022-12-23T02:51:42.773Z,68.44
2022-12-23T02:54:14.932Z,68.52
2022-12-23T02:56:46.626Z,68.46
2022-12-23T02:59:18.828Z,68.70
2022-12-23T03:01:50.973Z,68.70
2022-12-23T03:04:19.731Z,68.49
2022-12-23T03:06:51.339Z,68.66
2022-12-23T03:09:29.675Z,69.39
2022-12-23T03:12:06.242Z,69.12
2022-12-23T03:15:09.526Z,69.13
2022-12-23T03:17:50.439Z,68.40
2022-12-23T03:20:28.548Z,68.34
2022-12-23T03:23:04.957Z,67.99
2022-12-23T03:25:37.285Z,68.01
2022-12-23T03:28:12.406Z,67.78
2022-12-23T03:30:45.690Z,67.83
2022-12-23T03:33:18.042Z,67.95
2022-12-23T03:35:51.417Z,68.09
2022-12-23T03:38:20.832Z,68.04
2022-12-23T03:40:54.779Z,68.27
2022-12-23T03:43:27.236Z,68.23
2022-12-23T03:46:00.483Z,68.08
2022-12-23T03:48:34.772Z,68.31
2022-12-23T03:51:06.070Z,68.02
2022-12-23T03:53:40.229Z,68.09
2022-12-23T03:56:14.085Z,68.50
2022-12-23T03:58:49.101Z,68.50
2022-12-23T04:01:25.801Z,68.47
2022-12-23T04:04:02.673Z,68.53
2022-12-23T04:06:37.447Z,68.70
2022-12-23T04:09:07.436Z,69.00
2022-12-23T04:11:37.300Z,68.85
2022-12-23T04:14:05.542Z,68.56
2022-12-23T04:16:34.391Z,69.04
2022-12-23T04:19:04.043Z,68.85
2022-12-23T04:21:32.228Z,69.04
2022-12-23T04:24:00.418Z,69.07
2022-12-23T04:26:28.592Z,69.09
2022-12-23T04:28:56.843Z,68.95
2022-12-23T04:31:25.277Z,69.02
2022-12-23T04:33:53.534Z,68.86
2022-12-23T04:36:23.049Z,68.73
2022-12-23T04:38:51.348Z,69.37
2022-12-23T04:41:19.642Z,69.47
2022-12-23T04:43:53.141Z,69.66
2022-12-23T04:46:21.840Z,69.72
2022-12-23T04:48:50.066Z,69.92
2022-12-23T04:51:18.324Z,69.99
2022-12-23T04:53:48.020Z,69.33
2022-12-23T04:56:16.520Z,68.92
2022-12-23T04:58:44.884Z,69.29
2022-12-23T05:01:13.517Z,69.06
2022-12-23T05:03:42.157Z,69.16
2022-12-23T05:06:10.343Z,68.97
2022-12-23T05:08:38.602Z,68.04
2022-12-23T05:11:08.354Z,68.53
2022-12-23T05:13:36.785Z,68.66
2022-12-23T05:16:05.462Z,68.62
2022-12-23T05:18:33.882Z,69.08
2022-12-23T05:21:02.079Z,69.07
2022-12-23T05:23:30.271Z,69.30
2022-12-23T05:25:58.501Z,68.72
2022-12-23T05:28:28.114Z,69.25
2022-12-23T05:31:00.697Z,69.35
2022-12-23T05:33:29.544Z,69.23
2022-12-23T05:35:58.180Z,69.20
2022-12-23T05:38:26.663Z,69.31
2022-12-23T05:40:55.001Z,69.36
2022-12-23T05:43:23.601Z,69.34
2022-12-23T05:45:53.249Z,69.33
2022-12-23T05:48:21.451Z,69.62
2022-12-23T05:50:51.213Z,69.78
2022-12-23T05:53:20.074Z,69.39
2022-12-23T05:55:48.777Z,69.67
2022-12-23T05:58:17.255Z,69.64
2022-12-23T06:00:45.474Z,69.99
2022-12-23T06:03:15.186Z,69.84
2022-12-23T06:05:44.189Z,69.81
2022-12-23T06:08:12.299Z,69.91
2022-12-23T06:10:40.359Z,69.88
2022-12-23T06:13:08.469Z,70.18
2022-12-23T06:15:36.624Z,70.05
2022-12-23T06:18:04.997Z,69.75
2022-12-23T06:20:34.551Z,69.63
2022-12-23T06:23:02.743Z,69.63
2022-12-23T06:25:30.832Z,69.90
2022-12-23T06:27:59.612Z,69.79
2022-12-23T06:30:27.837Z,69.54
2022-12-23T06:32:56.060Z,70.16
2022-12-23T06:35:24.353Z,69.87
2022-12-23T06:37:55.551Z,70.52
2022-12-23T06:40:23.635Z,70.41
2022-12-23T06:42:51.831Z,70.46
2022-12-23T06:45:20.035Z,70.72
2022-12-23T06:47:48.182Z,70.65
2022-12-23T06:50:16.410Z,70.90
2022-12-23T06:52:44.679Z,70.69
2022-12-23T06:55:14.367Z,70.71
2022-12-23T06:57:42.571Z,70.73
2022-12-23T07:00:11.883Z,70.87
2022-12-23T07:02:40.012Z,70.30
2022-12-23T07:05:08.657Z,70.20
2022-12-23T07:07:36.803Z,70.55
2022-12-23T07:10:05.904Z,70.40
2022-12-23T07:12:35.592Z,70.59
2022-12-23T07:15:03.825Z,70.71
2022-12-23T07:17:32.546Z,71.02
2022-12-23T07:20:00.952Z,71.43
2022-12-23T07:22:29.240Z,71.72
2022-12-23T07:24:57.438Z,71.42
2022-12-23T07:27:25.587Z,70.85
2022-12-23T07:29:55.114Z,71.47
2022-12-23T07:32:23.363Z,71.16
2022-12-23T07:34:51.507Z,70.45
2022-12-23T07:37:19.590Z,70.82
2022-12-23T07:39:47.667Z,70.44
2022-12-23T07:42:43.428Z,69.66
2022-12-23T07:45:06.462Z,69.62
2022-12-23T07:47:34.705Z,69.34
2022-12-23T07:50:02.982Z,69.38
2022-12-23T07:52:31.245Z,69.42
2022-12-23T07:54:59.455Z,69.47
2022-12-23T07:57:27.625Z,69.53
2022-12-23T07:59:55.738Z,68.68
2022-12-23T08:02:25.715Z,68.91
2022-12-23T08:04:54.016Z,69.42
2022-12-23T08:07:22.285Z,69.57
2022-12-23T08:09:50.416Z,69.98
2022-12-23T08:12:18.655Z,70.07
2022-12-23T08:14:48.582Z,70.01
2022-12-23T08:17:16.716Z,70.18
2022-12-23T08:19:46.537Z,70.08
2022-12-23T08:22:14.733Z,70.90
2022-12-23T08:24:42.941Z,70.48
2022-12-23T08:27:11.415Z,70.84
2022-12-23T08:29:40.852Z,70.30
2022-12-23T08:32:09.316Z,70.44
2022-12-23T08:34:37.637Z,70.35
2022-12-23T08:37:07.237Z,70.40
2022-12-23T08:39:35.694Z,70.09
2022-12-23T08:42:03.996Z,69.51
2022-12-23T08:44:32.802Z,69.46
2022-12-23T08:47:01.082Z,69.29
2022-12-23T08:49:29.215Z,69.01
2022-12-23T08:51:57.510Z,68.82
2022-12-23T08:54:28.364Z,68.63
2022-12-23T08:56:56.618Z,69.00
2022-12-23T08:59:24.892Z,68.98
2022-12-23T09:01:53.219Z,69.18
2022-12-23T09:04:21.673Z,69.85
2022-12-23T09:06:49.841Z,69.92
2022-12-23T09:09:18.019Z,70.15
2022-12-23T09:11:47.710Z,70.04
2022-12-23T09:14:15.875Z,69.98
2022-12-23T09:16:44.017Z,70.00
2022-12-23T09:19:12.157Z,69.84
2022-12-23T09:21:40.387Z,69.75
2022-12-23T09:24:08.745Z,69.74
2022-12-23T09:26:37.007Z,69.48
2022-12-23T09:29:06.696Z,69.01
2022-12-23T09:31:37.631Z,69.19
2022-12-23T09:34:06.894Z,69.07
2022-12-23T09:36:35.041Z,69.11
2022-12-23T09:39:03.255Z,68.43
2022-12-23T09:41:46.429Z,68.73
2022-12-23T09:44:41.694Z,68.55
2022-12-23T09:47:15.759Z,68.56
2022-12-23T09:49:48.819Z,68.97
2022-12-23T09:52:23.949Z,69.07
2022-12-23T09:54:55.279Z,68.88
2022-12-23T09:57:28.078Z,68.92
2022-12-23T10:00:07.011Z,69.10
2022-12-23T10:02:44.492Z,69.07
2022-12-23T10:05:22.668Z,69.40
2022-12-23T10:07:54.750Z,69.51
2022-12-23T10:10:33.259Z,69.84
2022-12-23T10:13:03.402Z,69.14
2022-12-23T10:15:38.097Z,69.20
2022-12-23T10:18:13.955Z,68.89
2022-12-23T10:20:47.224Z,69.02
2022-12-23T10:23:18.965Z,68.99
2022-12-23T10:25:51.868Z,69.25
2022-12-23T10:28:20.491Z,69.29
2022-12-23T10:33:56.161Z,69.40
2022-12-23T10:36:36.381Z,69.43
2022-12-23T10:39:15.252Z,69.67
2022-12-23T10:41:51.975Z,69.56
2022-12-23T10:44:35.754Z,69.95
2022-12-23T10:47:16.020Z,69.93
2022-12-23T10:49:54.681Z,69.51
2022-12-23T10:52:25.196Z,69.45
2022-12-23T10:54:53.187Z,69.40
2022-12-23T10:57:21.533Z,69.65
2022-12-23T10:59:49.617Z,69.48
2022-12-23T11:02:47.436Z,69.52
2022-12-23T11:05:29.790Z,69.57
2022-12-23T11:07:58.739Z,69.69
2022-12-23T11:10:33.136Z,69.75
2022-12-23T11:13:01.807Z,69.75
2022-12-23T11:15:33.760Z,68.97
2022-12-23T11:18:07.435Z,69.17
2022-12-23T11:20:37.540Z,68.96
2022-12-23T11:23:07.774Z,69.06
2022-12-23T11:25:38.460Z,69.29
2022-12-23T11:28:13.699Z,69.16
2022-12-23T11:30:56.501Z,69.18
2022-12-23T11:33:29.317Z,68.80
2022-12-23T11:36:03.086Z,68.90
2022-12-23T11:38:31.743Z,69.05
2022-12-23T11:41:00.561Z,68.93
2022-12-23T11:43:29.410Z,68.90
2022-12-23T11:46:19.401Z,68.70
2022-12-23T11:48:54.581Z,68.89
2022-12-23T11:51:28.044Z,68.94
2022-12-23T11:54:01.548Z,68.96
2022-12-23T11:56:36.226Z,68.78
2022-12-23T11:59:09.327Z,68.85
2022-12-23T12:01:39.699Z,69.13
2022-12-23T12:04:13.636Z,69.07
2022-12-23T12:06:51.151Z,68.66
2022-12-23T12:09:22.086Z,68.86
2022-12-23T12:11:52.292Z,68.66
2022-12-23T12:14:26.426Z,68.58
2022-12-23T12:17:01.895Z,69.13
2022-12-23T12:19:34.628Z,69.08
2022-12-23T12:22:07.109Z,69.32
2022-12-23T12:24:40.152Z,69.24
2022-12-23T12:27:09.404Z,69.17
2022-12-23T12:29:42.898Z,68.95
2022-12-23T12:32:20.458Z,68.77
2022-12-23T12:34:54.764Z,68.95
2022-12-23T12:37:31.430Z,69.20
2022-12-23T12:40:03.667Z,69.51
2022-12-23T12:42:37.893Z,69.75
2022-12-23T12:45:18.066Z,70.09
2022-12-23T12:47:59.922Z,69.83
2022-12-23T12:50:35.485Z,69.71
2022-12-23T12:53:11.533Z,69.77
2022-12-23T12:55:46.252Z,69.43
2022-12-23T12:58:20.405Z,69.60
2022-12-23T13:01:02.608Z,69.53
2022-12-23T13:04:00.108Z,68.97
2022-12-23T13:06:37.314Z,68.73
2022-12-23T13:09:18.166Z,68.29
2022-12-23T13:11:54.596Z,68.86
2022-12-23T13:14:34.891Z,69.11
2022-12-23T13:17:09.595Z,69.71
2022-12-23T13:19:45.301Z,69.36
2022-12-23T13:22:18.077Z,69.44
2022-12-23T13:24:58.507Z,69.90
2022-12-23T13:27:32.852Z,70.16
2022-12-23T13:30:07.058Z,70.20
2022-12-23T13:32:52.631Z,70.68
2022-12-23T13:35:34.247Z,70.75
2022-12-23T13:38:16.012Z,70.83
2022-12-23T13:40:54.699Z,70.38
2022-12-23T13:43:25.528Z,70.15
2022-12-23T13:45:55.651Z,70.07
2022-12-23T13:48:36.638Z,69.84
2022-12-23T13:51:11.362Z,70.00
2022-12-23T13:53:53.695Z,69.80
2022-12-23T13:56:31.166Z,70.09
2022-12-23T13:58:59.579Z,69.86
2022-12-23T14:01:37.624Z,69.91
2022-12-23T14:04:57.971Z,69.38
2022-12-23T14:07:28.625Z,69.21
2022-12-23T14:10:09.950Z,68.65
2022-12-23T14:12:40.158Z,68.90
2022-12-23T14:15:29.271Z,69.15
2022-12-23T14:18:10.746Z,69.15
2022-12-23T14:20:49.671Z,68.50
2022-12-23T14:23:35.095Z,68.88
2022-12-23T14:26:22.175Z,68.38
2022-12-23T14:29:03.021Z,68.06
2022-12-23T14:31:36.739Z,68.69
2022-12-23T14:34:24.272Z,68.97
2022-12-23T14:37:31.241Z,68.86
2022-12-23T14:39:59.857Z,68.67
2022-12-23T14:42:42.681Z,69.00
2022-12-23T14:45:30.709Z,68.78
2022-12-23T14:47:58.887Z,69.19
2022-12-23T14:50:40.906Z,69.09
2022-12-23T14:53:24.538Z,69.27
2022-12-23T14:56:11.004Z,68.63
2022-12-23T14:59:00.787Z,69.03
2022-12-23T15:01:34.931Z,68.95
2022-12-23T15:04:10.146Z,69.47
2022-12-23T15:06:40.675Z,69.55
2022-12-23T15:09:17.687Z,68.95
2022-12-23T15:11:45.833Z,69.06
2022-12-23T15:14:22.204Z,68.91
2022-12-23T15:16:50.242Z,68.75
2022-12-23T15:19:21.541Z,68.87
2022-12-23T15:22:00.279Z,69.06
2022-12-23T15:24:33.435Z,69.16
2022-12-23T15:27:26.014Z,69.36
2022-12-23T15:29:55.351Z,69.35
2022-12-23T15:32:25.710Z,69.14
2022-12-23T15:34:56.989Z,69.13
2022-12-23T15:37:30.535Z,69.51
2022-12-23T15:40:09.490Z,69.73
2022-12-23T15:42:39.920Z,69.76
2022-12-23T15:45:31.400Z,70.63
2022-12-23T15:47:59.635Z,70.77
2022-12-23T15:50:29.558Z,70.61
2022-12-23T15:53:08.838Z,70.93
2022-12-23T15:55:40.614Z,70.72
2022-12-23T15:58:09.200Z,70.47
2022-12-23T16:00:42.153Z,70.71
2022-12-23T16:03:25.163Z,70.26
2022-12-23T16:05:53.533Z,69.88
2022-12-23T16:08:30.236Z,70.10
2022-12-23T16:11:06.484Z,70.19
2022-12-23T16:13:34.887Z,70.13
2022-12-23T16:16:30.515Z,69.90
2022-12-23T16:18:58.626Z,69.55
2022-12-23T16:21:31.133Z,70.18
2022-12-23T16:24:00.960Z,70.00
2022-12-23T16:26:29.325Z,69.55
2022-12-23T16:29:01.922Z,69.17
2022-12-23T16:31:31.455Z,69.21
2022-12-23T16:34:01.124Z,69.36
2022-12-23T16:36:37.636Z,69.35
2022-12-23T16:39:16.180Z,69.44
2022-12-23T16:41:44.314Z,68.50
2022-12-23T16:44:12.312Z,68.86
2022-12-23T16:46:45.173Z,69.17
2022-12-23T16:49:16.839Z,68.57
2022-12-23T16:51:45.332Z,69.20
2022-12-23T16:54:16.518Z,69.56
2022-12-23T16:56:46.865Z,69.49
2022-12-23T16:59:15.463Z,69.54
2022-12-23T17:01:46.791Z,69.17
2022-12-23T17:04:15.205Z,69.29
2022-12-23T17:06:43.476Z,69.38
2022-12-23T17:09:11.888Z,69.34
2022-12-23T17:11:42.569Z,69.09
2022-12-23T17:14:16.298Z,69.25
2022-12-23T17:16:46.842Z,70.01
2022-12-23T17:19:15.357Z,70.29
2022-12-23T17:21:44.863Z,70.67
2022-12-23T17:24:18.407Z,70.87
2022-12-23T17:26:46.444Z,70.78
2022-12-23T17:29:14.647Z,70.75
2022-12-23T17:31:44.261Z,70.66
2022-12-23T17:34:16.912Z,70.16
2022-12-23T17:36:49.868Z,70.46
2022-12-23T17:39:19.070Z,69.84
2022-12-23T17:41:47.655Z,69.91
2022-12-23T17:44:17.150Z,69.95
2022-12-23T17:46:46.113Z,69.86
2022-12-23T17:49:15.645Z,69.79
2022-12-23T17:51:44.195Z,70.44
2022-12-23T17:54:21.745Z,69.98
2022-12-23T17:56:50.102Z,69.50
2022-12-23T17:59:18.125Z,69.65
2022-12-23T18:01:46.311Z,70.06
2022-12-23T18:04:15.804Z,70.05
2022-12-23T18:06:44.142Z,69.46
2022-12-23T18:09:12.247Z,70.51
2022-12-23T18:11:43.453Z,70.25
2022-12-23T18:14:17.318Z,69.64
2022-12-23T18:16:45.487Z,70.13
2022-12-23T18:19:18.179Z,69.63
2022-12-23T18:21:46.743Z,69.07
2022-12-23T18:24:14.883Z,68.99
2022-12-23T18:26:43.076Z,69.08
2022-12-23T18:29:11.135Z,69.95
2022-12-23T18:31:50.215Z,69.21
2022-12-23T18:34:21.512Z,69.59
2022-12-23T18:36:51.926Z,69.50
2022-12-23T18:39:20.287Z,69.79
2022-12-23T18:41:48.279Z,69.19
2022-12-23T18:44:19.680Z,68.95
2022-12-23T18:46:47.704Z,69.03
2022-12-23T18:49:15.909Z,69.57
2022-12-23T18:51:45.288Z,68.92
2022-12-23T18:54:15.824Z,68.96
2022-12-23T18:56:43.873Z,69.07
2022-12-23T18:59:16.836Z,69.16
2022-12-23T19:01:44.945Z,70.05
2022-12-23T19:04:13.105Z,70.04
2022-12-23T19:06:41.325Z,70.18
2022-12-23T19:09:16.919Z,69.95
2022-12-23T19:11:46.894Z,69.79
2022-12-23T19:14:15.093Z,69.73
2022-12-23T19:16:49.233Z,70.19
2022-12-23T19:19:19.499Z,70.14
2022-12-23T19:21:47.779Z,69.80
2022-12-23T19:24:17.236Z,69.50
2022-12-23T19:26:45.517Z,69.38
2022-12-23T19:29:13.653Z,69.20
2022-12-23T19:31:42.027Z,69.74
2022-12-23T19:34:15.074Z,69.42
2022-12-23T19:36:44.016Z,70.00
2022-12-23T19:39:16.491Z,69.67
2022-12-23T19:41:46.843Z,70.27
2022-12-23T19:44:15.058Z,69.46
2022-12-23T19:46:43.287Z,69.37
2022-12-23T19:49:19.184Z,69.71
2022-12-23T19:51:48.532Z,70.14
2022-12-23T19:54:17.063Z,70.22
2022-12-23T19:56:50.615Z,70.18
2022-12-23T19:59:18.734Z,69.87
2022-12-23T20:01:47.007Z,70.01
2022-12-23T20:04:15.902Z,70.14
2022-12-23T20:06:45.617Z,70.19
2022-12-23T20:09:14.769Z,69.61
2022-12-23T20:11:44.791Z,69.39
2022-12-23T20:14:16.320Z,69.27
2022-12-23T20:16:45.189Z,70.00
2022-12-23T20:19:13.220Z,68.86
2022-12-23T20:21:41.545Z,69.66
2022-12-23T20:24:10.696Z,69.52
2022-12-23T20:26:39.251Z,68.76
2022-12-23T20:29:07.355Z,69.59
2022-12-23T20:31:38.760Z,69.23
2022-12-23T20:34:09.107Z,69.39
2022-12-23T20:36:37.813Z,69.20
2022-12-23T20:39:06.465Z,69.24
2022-12-23T20:41:34.834Z,69.82
2022-12-23T20:44:33.267Z,70.09
2022-12-23T20:46:52.876Z,70.59
2022-12-23T20:49:21.238Z,71.47
2022-12-23T20:51:49.303Z,71.37
2022-12-23T20:54:17.388Z,72.00
2022-12-23T20:56:45.510Z,72.11
2022-12-23T20:59:13.808Z,71.98
2022-12-23T21:01:42.818Z,72.21
2022-12-23T21:04:15.943Z,71.83
2022-12-23T21:06:44.611Z,72.57
2022-12-23T21:09:14.798Z,72.80
2022-12-23T21:11:44.901Z,72.64
2022-12-23T21:14:14.572Z,72.35
2022-12-23T21:16:43.824Z,71.88
2022-12-23T21:19:21.387Z,71.80
2022-12-23T21:21:50.917Z,71.90
2022-12-23T21:24:20.170Z,71.29
2022-12-23T21:26:55.744Z,71.92
2022-12-23T21:29:24.839Z,72.18
2022-12-23T21:31:53.194Z,71.57
2022-12-23T21:34:22.755Z,71.93
2022-12-23T21:36:50.901Z,71.36
2022-12-23T21:39:18.929Z,71.29
2022-12-23T21:41:49.265Z,71.39
2022-12-23T21:44:17.313Z,70.81
2022-12-23T21:46:45.398Z,71.04
2022-12-23T21:49:14.317Z,70.48
2022-12-23T21:51:43.846Z,70.45
2022-12-23T21:54:12.908Z,71.06
2022-12-23T21:56:41.711Z,70.44
2022-12-23T21:59:13.139Z,70.58
2022-12-23T22:01:42.004Z,70.93
2022-12-23T22:04:10.035Z,70.72
2022-12-23T22:06:41.514Z,71.24
2022-12-23T22:09:13.586Z,70.70
2022-12-23T22:11:41.791Z,70.73
2022-12-23T22:14:13.028Z,70.16
2022-12-23T22:16:41.231Z,70.93
2022-12-23T22:19:09.919Z,70.67
2022-12-23T22:21:39.874Z,70.73
2022-12-23T22:24:08.981Z,70.76
2022-12-23T22:26:38.366Z,70.59
2022-12-23T22:29:07.206Z,70.53
2022-12-23T22:31:38.132Z,70.87
2022-12-23T22:34:06.864Z,70.66
2022-12-23T22:36:35.607Z,71.42
2022-12-23T22:39:04.269Z,71.29
2022-12-23T22:41:33.088Z,72.01
2022-12-23T22:44:02.519Z,71.86
2022-12-23T22:46:30.888Z,71.34
2022-12-23T22:48:59.167Z,71.82
2022-12-23T22:51:28.766Z,71.43
2022-12-23T22:53:57.156Z,72.21
2022-12-23T22:56:26.645Z,71.22
2022-12-23T22:58:55.167Z,71.81
2022-12-23T23:01:26.368Z,72.01
2022-12-23T23:03:57.887Z,71.84
2022-12-23T23:06:26.881Z,71.45
2022-12-23T23:08:55.689Z,70.74
2022-12-23T23:11:24.150Z,71.08
2022-12-23T23:13:53.094Z,71.35
2022-12-23T23:16:21.812Z,72.14
2022-12-23T23:18:51.531Z,71.60
2022-12-23T23:21:19.930Z,72.00
2022-12-23T23:23:48.100Z,71.58
2022-12-23T23:26:16.439Z,71.65
2022-12-23T23:28:45.257Z,71.63
2022-12-23T23:34:03.219Z,71.22
2022-12-23T23:36:31.366Z,71.81
2022-12-23T23:38:59.381Z,71.75
2022-12-23T23:41:27.549Z,71.97
2022-12-23T23:43:55.622Z,71.02
2022-12-23T23:46:23.968Z,71.40
2022-12-23T23:48:52.067Z,72.12
2022-12-23T23:51:21.538Z,71.85
2022-12-23T23:53:49.558Z,70.77
2022-12-23T23:56:23.806Z,71.25
2022-12-23T23:58:53.369Z,71.05
